createdAt,value
2023-05-09T00:00:28.520Z,67.98
2023-05-09T00:03:12.305Z,67.92
2023-05-09T00:05:39.262Z,67.90
2023-05-09T00:08:06.069Z,68.09
2023-05-09T00:10:32.906Z,68.12
2023-05-09T00:13:00.538Z,68.09
2023-05-09T00:15:28.304Z,68.05
2023-05-09T00:17:54.979Z,68.03
2023-05-09T00:20:21.731Z,68.04
2023-05-09T00:22:48.196Z,68.17
2023-05-09T00:25:15.006Z,68.28
2023-05-09T00:27:41.753Z,68.18
2023-05-09T00:30:08.483Z,68.26
2023-05-09T00:32:35.626Z,68.54
2023-05-09T00:35:02.540Z,68.58
2023-05-09T00:37:30.707Z,68.54
2023-05-09T00:39:57.465Z,68.56
2023-05-09T00:42:24.328Z,68.67
2023-05-09T00:44:50.911Z,68.46
2023-05-09T00:47:17.858Z,68.56
2023-05-09T00:49:44.517Z,68.64
2023-05-09T00:52:11.271Z,68.67
2023-05-09T00:54:38.199Z,68.74
2023-05-09T00:57:04.897Z,68.79
2023-05-09T00:59:31.399Z,68.77
2023-05-09T01:01:58.341Z,68.70
2023-05-09T01:04:25.308Z,68.59
2023-05-09T01:07:08.319Z,68.65
2023-05-09T01:09:48.964Z,68.61
2023-05-09T01:12:34.381Z,68.69
2023-05-09T01:15:11.492Z,68.87
2023-05-09T01:18:06.759Z,68.73
2023-05-09T01:20:45.040Z,68.71
2023-05-09T01:23:22.502Z,68.72
2023-05-09T01:26:05.566Z,68.88
2023-05-09T01:29:01.203Z,69.00
2023-05-09T01:31:28.276Z,69.11
2023-05-09T01:33:59.284Z,69.19
2023-05-09T01:36:29.469Z,69.20
2023-05-09T01:38:57.866Z,69.28
2023-05-09T01:41:29.887Z,69.35
2023-05-09T01:43:58.704Z,69.29
2023-05-09T01:46:26.736Z,69.37
2023-05-09T01:48:54.770Z,69.42
2023-05-09T01:51:22.483Z,69.44
2023-05-09T01:53:52.851Z,69.46
2023-05-09T01:56:21.892Z,69.45
2023-05-09T01:58:50.838Z,69.48
2023-05-09T02:01:19.030Z,69.55
2023-05-09T02:03:50.134Z,69.34
2023-05-09T02:06:20.430Z,69.44
2023-05-09T02:08:48.296Z,69.57
2023-05-09T02:11:14.999Z,69.60
2023-05-09T02:13:42.025Z,69.74
2023-05-09T02:16:09.784Z,69.84
2023-05-09T02:18:36.653Z,69.90
2023-05-09T02:21:03.920Z,69.93
2023-05-09T02:23:30.849Z,70.07
2023-05-09T02:25:57.451Z,70.33
2023-05-09T02:28:27.016Z,70.41
2023-05-09T02:30:58.014Z,70.45
2023-05-09T02:33:26.819Z,70.42
2023-05-09T02:35:54.911Z,70.41
2023-05-09T02:38:21.740Z,70.49
2023-05-09T02:40:52.289Z,70.55
2023-05-09T02:43:19.482Z,70.43
2023-05-09T02:45:46.106Z,70.46
2023-05-09T02:48:12.774Z,70.55
2023-05-09T02:50:42.241Z,70.66
2023-05-09T02:53:09.098Z,70.83
2023-05-09T02:55:35.737Z,70.91
2023-05-09T02:58:12.798Z,70.85
2023-05-09T03:00:42.059Z,71.29
2023-05-09T03:03:08.908Z,71.24
2023-05-09T03:05:35.513Z,71.45
2023-05-09T03:08:02.176Z,71.37
2023-05-09T03:10:28.896Z,71.33
2023-05-09T03:12:55.468Z,71.52
2023-05-09T03:15:22.640Z,71.79
2023-05-09T03:17:49.601Z,72.05
2023-05-09T03:20:19.649Z,71.98
2023-05-09T03:22:47.808Z,72.02
2023-05-09T03:25:15.778Z,72.14
2023-05-09T03:27:42.527Z,72.18
2023-05-09T03:30:12.380Z,71.96
2023-05-09T03:32:39.374Z,72.35
2023-05-09T03:35:06.320Z,72.34
2023-05-09T03:37:33.075Z,72.37
2023-05-09T03:39:59.818Z,72.40
2023-05-09T03:42:26.649Z,72.66
2023-05-09T03:44:55.960Z,72.75
2023-05-09T03:47:22.963Z,72.73
2023-05-09T03:49:49.614Z,72.92
2023-05-09T03:52:17.649Z,72.89
2023-05-09T03:54:45.066Z,73.20
2023-05-09T03:57:11.673Z,73.33
2023-05-09T03:59:38.409Z,73.88
2023-05-09T04:02:05.365Z,74.26
2023-05-09T04:04:32.447Z,74.65
2023-05-09T04:06:59.493Z,74.67
2023-05-09T04:09:26.946Z,74.69
2023-05-09T04:11:54.171Z,74.63
2023-05-09T04:14:20.854Z,74.43
2023-05-09T04:16:47.616Z,74.45
2023-05-09T04:19:14.452Z,74.31
2023-05-09T04:21:41.168Z,74.16
2023-05-09T04:24:08.078Z,74.04
2023-05-09T04:26:41.779Z,73.93
2023-05-09T04:29:11.150Z,73.69
2023-05-09T04:31:38.190Z,73.64
2023-05-09T04:34:05.835Z,73.44
2023-05-09T04:36:33.581Z,72.89
2023-05-09T04:39:00.424Z,72.82
2023-05-09T04:41:28.920Z,72.42
2023-05-09T04:43:55.819Z,72.05
2023-05-09T04:46:25.820Z,71.73
2023-05-09T04:48:53.260Z,70.76
2023-05-09T04:51:20.456Z,70.13
2023-05-09T04:53:47.075Z,69.75
2023-05-09T04:56:14.828Z,69.91
2023-05-09T04:58:42.244Z,69.56
2023-05-09T05:01:09.841Z,69.39
2023-05-09T05:03:36.757Z,69.00
2023-05-09T05:06:03.774Z,68.39
2023-05-09T05:08:30.734Z,67.51
2023-05-09T05:10:58.329Z,66.88
2023-05-09T05:13:25.533Z,66.64
2023-05-09T05:15:55.786Z,65.98
2023-05-09T05:18:22.504Z,65.82
2023-05-09T05:20:49.253Z,64.88
2023-05-09T05:23:17.736Z,64.66
2023-05-09T05:25:44.471Z,64.56
2023-05-09T05:28:12.540Z,63.35
2023-05-09T05:30:40.570Z,63.11
2023-05-09T05:33:07.273Z,64.10
2023-05-09T05:35:34.218Z,63.74
2023-05-09T05:38:01.142Z,63.51
2023-05-09T05:40:28.477Z,62.53
2023-05-09T05:42:55.409Z,61.77
2023-05-09T05:45:22.219Z,61.52
2023-05-09T05:47:51.181Z,60.83
2023-05-09T05:50:18.518Z,60.90
2023-05-09T05:52:45.025Z,58.62
2023-05-09T05:55:13.785Z,59.10
2023-05-09T05:57:41.211Z,58.41
2023-05-09T06:00:14.387Z,58.03
2023-05-09T06:02:45.229Z,58.05
2023-05-09T06:05:16.988Z,57.10
2023-05-09T06:07:43.686Z,56.28
2023-05-09T06:10:10.843Z,56.36
2023-05-09T06:12:37.755Z,56.93
2023-05-09T06:15:05.306Z,57.54
2023-05-09T06:17:34.009Z,56.11
2023-05-09T06:20:01.741Z,55.88
2023-05-09T06:22:28.308Z,55.08
2023-05-09T06:24:55.072Z,54.63
2023-05-09T06:27:21.805Z,54.37
2023-05-09T06:29:48.405Z,53.55
2023-05-09T06:32:18.213Z,52.20
2023-05-09T06:34:45.005Z,51.29
2023-05-09T06:37:11.550Z,51.34
2023-05-09T06:39:38.343Z,51.06
2023-05-09T06:42:05.093Z,50.89
2023-05-09T06:44:32.192Z,50.50
2023-05-09T06:46:58.921Z,49.60
2023-05-09T06:49:25.938Z,49.92
2023-05-09T06:51:52.556Z,48.34
2023-05-09T06:54:19.375Z,48.56
2023-05-09T06:56:46.055Z,47.49
2023-05-09T06:59:12.848Z,47.54
2023-05-09T07:01:40.563Z,47.37
2023-05-09T07:04:07.336Z,45.92
2023-05-09T07:06:33.932Z,46.33
2023-05-09T07:09:00.644Z,44.12
2023-05-09T07:11:27.377Z,44.46
2023-05-09T07:13:53.899Z,43.38
2023-05-09T07:16:22.406Z,43.51
2023-05-09T07:18:49.150Z,41.60
2023-05-09T07:21:15.717Z,42.25
2023-05-09T07:23:42.495Z,42.09
2023-05-09T07:26:09.051Z,40.63
2023-05-09T07:28:35.510Z,40.94
2023-05-09T07:31:02.868Z,40.37
2023-05-09T07:33:29.456Z,40.42
2023-05-09T07:35:58.193Z,39.61
2023-05-09T07:38:24.941Z,37.86
2023-05-09T07:40:52.646Z,37.38
2023-05-09T07:43:19.234Z,36.58
2023-05-09T07:45:46.544Z,35.69
2023-05-09T07:48:13.197Z,35.93
2023-05-09T07:50:39.722Z,37.13
2023-05-09T07:53:06.528Z,37.50
2023-05-09T07:55:33.191Z,36.23
2023-05-09T07:57:59.875Z,34.61
2023-05-09T08:00:26.806Z,33.28
2023-05-09T08:02:53.690Z,33.60
2023-05-09T08:05:20.434Z,34.78
2023-05-09T08:07:47.283Z,35.54
2023-05-09T08:10:14.030Z,35.47
2023-05-09T08:12:40.664Z,35.08
2023-05-09T08:15:07.875Z,34.76
2023-05-09T08:17:34.736Z,33.41
2023-05-09T08:20:01.284Z,32.96
2023-05-09T08:22:27.987Z,31.88
2023-05-09T08:24:54.771Z,32.62
2023-05-09T08:27:21.211Z,30.79
2023-05-09T08:29:48.145Z,31.18
2023-05-09T08:32:14.904Z,30.16
2023-05-09T08:34:41.450Z,31.26
2023-05-09T08:37:08.238Z,31.00
2023-05-09T08:39:35.042Z,30.39
2023-05-09T08:42:02.181Z,32.15
2023-05-09T08:44:31.092Z,31.72
2023-05-09T08:47:02.758Z,32.33
2023-05-09T08:49:30.910Z,31.72
2023-05-09T08:52:01.859Z,32.28
2023-05-09T08:54:29.891Z,31.61
2023-05-09T08:57:00.490Z,32.46
2023-05-09T08:59:28.175Z,31.13
2023-05-09T09:01:55.336Z,30.73
2023-05-09T09:04:22.273Z,30.93
2023-05-09T09:06:50.432Z,31.10
2023-05-09T09:09:19.664Z,31.33
2023-05-09T09:11:47.617Z,31.90
2023-05-09T09:14:23.239Z,32.13
2023-05-09T09:16:52.422Z,30.27
2023-05-09T09:19:21.872Z,30.42
2023-05-09T09:21:53.452Z,29.77
2023-05-09T09:24:22.387Z,30.26
2023-05-09T09:26:50.657Z,29.96
2023-05-09T09:29:20.182Z,29.60
2023-05-09T09:31:51.695Z,30.42
2023-05-09T09:34:23.264Z,29.86
2023-05-09T09:36:50.502Z,30.50
2023-05-09T09:39:20.374Z,30.45
2023-05-09T09:41:48.180Z,30.88
2023-05-09T09:44:22.554Z,30.12
2023-05-09T09:46:51.595Z,27.73
2023-05-09T09:49:23.394Z,27.71
2023-05-09T09:51:55.244Z,29.76
2023-05-09T09:54:24.973Z,29.29
2023-05-09T09:56:56.310Z,29.82
2023-05-09T09:59:25.163Z,29.14
2023-05-09T10:02:08.036Z,28.89
2023-05-09T10:04:41.464Z,29.02
2023-05-09T10:07:13.529Z,29.13
2023-05-09T10:09:43.219Z,28.47
2023-05-09T10:12:10.001Z,29.07
2023-05-09T10:14:40.769Z,29.12
2023-05-09T10:17:13.811Z,28.53
2023-05-09T10:19:45.454Z,28.31
2023-05-09T10:22:14.886Z,28.42
2023-05-09T10:25:19.959Z,28.57
2023-05-09T10:27:47.770Z,27.54
2023-05-09T10:30:37.462Z,28.53
2023-05-09T10:33:10.498Z,29.04
2023-05-09T10:35:47.219Z,28.32
2023-05-09T10:38:14.170Z,27.96
2023-05-09T10:40:42.490Z,28.22
2023-05-09T10:43:09.010Z,28.57
2023-05-09T10:45:36.167Z,27.54
2023-05-09T10:48:07.260Z,28.45
2023-05-09T10:50:39.805Z,28.94
2023-05-09T10:53:10.928Z,29.29
2023-05-09T10:55:49.704Z,28.84
2023-05-09T10:58:22.356Z,28.89
2023-05-09T11:00:50.120Z,28.36
2023-05-09T11:03:20.750Z,27.90
2023-05-09T11:05:50.892Z,27.33
2023-05-09T11:08:19.389Z,28.48
2023-05-09T11:10:46.138Z,28.08
2023-05-09T11:13:12.959Z,28.06
2023-05-09T11:15:58.708Z,27.58
2023-05-09T11:18:25.480Z,28.00
2023-05-09T11:20:52.192Z,29.27
2023-05-09T11:23:19.570Z,26.82
2023-05-09T11:25:47.428Z,26.98
2023-05-09T11:28:31.568Z,27.60
2023-05-09T11:31:15.810Z,27.32
2023-05-09T11:33:46.307Z,27.73
2023-05-09T11:36:31.376Z,27.82
2023-05-09T11:39:08.000Z,27.15
2023-05-09T11:41:43.697Z,27.77
2023-05-09T11:44:19.464Z,28.02
2023-05-09T11:46:47.565Z,27.40
2023-05-09T11:49:15.269Z,27.46
2023-05-09T11:51:42.121Z,28.51
2023-05-09T11:54:09.959Z,28.76
2023-05-09T11:56:39.192Z,28.69
2023-05-09T11:59:07.012Z,29.06
2023-05-09T12:01:35.745Z,28.29
2023-05-09T12:04:02.520Z,28.19
2023-05-09T12:06:29.580Z,28.26
2023-05-09T12:08:59.025Z,28.28
2023-05-09T12:11:25.620Z,28.22
2023-05-09T12:13:52.466Z,27.91
2023-05-09T12:16:19.934Z,28.16
2023-05-09T12:18:47.263Z,27.47
2023-05-09T12:21:14.019Z,27.72
2023-05-09T12:23:41.083Z,28.50
2023-05-09T12:26:07.712Z,29.27
2023-05-09T12:28:35.802Z,29.59
2023-05-09T12:31:03.827Z,28.19
2023-05-09T12:33:31.162Z,28.33
2023-05-09T12:36:07.297Z,27.34
2023-05-09T12:38:34.020Z,27.36
2023-05-09T12:41:03.888Z,27.38
2023-05-09T12:43:35.779Z,26.94
2023-05-09T12:46:03.710Z,27.07
2023-05-09T12:48:37.229Z,26.95
2023-05-09T12:51:07.422Z,26.85
2023-05-09T12:53:38.607Z,27.18
2023-05-09T12:56:13.229Z,27.13
2023-05-09T12:58:40.363Z,26.85
2023-05-09T13:01:06.966Z,27.05
2023-05-09T13:03:42.826Z,27.12
2023-05-09T13:06:13.948Z,27.70
2023-05-09T13:08:40.971Z,27.36
2023-05-09T13:11:16.573Z,27.99
2023-05-09T13:13:44.387Z,27.09
2023-05-09T13:16:12.825Z,26.96
2023-05-09T13:18:41.549Z,27.13
2023-05-09T13:21:08.345Z,27.41
2023-05-09T13:23:34.919Z,27.62
2023-05-09T13:26:01.554Z,27.59
2023-05-09T13:28:28.418Z,28.34
2023-05-09T13:30:54.944Z,29.23
2023-05-09T13:33:25.819Z,28.13
2023-05-09T13:35:53.804Z,27.57
2023-05-09T13:38:20.407Z,27.43
2023-05-09T13:40:47.232Z,27.45
2023-05-09T13:43:14.223Z,27.27
2023-05-09T13:45:40.746Z,27.24
2023-05-09T13:48:07.525Z,27.11
2023-05-09T13:50:34.694Z,27.15
2023-05-09T13:53:01.365Z,27.60
2023-05-09T13:55:29.120Z,27.29
2023-05-09T13:57:56.093Z,27.10
2023-05-09T14:00:25.877Z,26.96
2023-05-09T14:02:52.876Z,26.80
2023-05-09T14:05:20.053Z,27.73
2023-05-09T14:07:47.131Z,27.54
2023-05-09T14:10:13.945Z,28.26
2023-05-09T14:12:43.594Z,28.66
2023-05-09T14:15:10.727Z,27.57
2023-05-09T14:17:37.456Z,26.79
2023-05-09T14:20:06.432Z,27.13
2023-05-09T14:22:34.351Z,27.28
2023-05-09T14:25:10.045Z,28.06
2023-05-09T14:27:36.995Z,26.44
2023-05-09T14:30:04.363Z,26.07
2023-05-09T14:32:31.149Z,26.10
2023-05-09T14:34:57.918Z,26.16
2023-05-09T14:37:24.677Z,27.36
2023-05-09T14:39:51.420Z,27.15
2023-05-09T14:42:19.135Z,26.97
2023-05-09T14:44:46.703Z,27.26
2023-05-09T14:47:13.459Z,27.14
2023-05-09T14:49:40.932Z,27.10
2023-05-09T14:52:07.610Z,27.67
2023-05-09T14:54:34.426Z,28.16
2023-05-09T14:57:03.916Z,27.96
2023-05-09T14:59:30.526Z,26.62
2023-05-09T15:01:57.211Z,27.33
2023-05-09T15:04:27.639Z,27.21
2023-05-09T15:06:54.277Z,27.59
2023-05-09T15:09:21.058Z,27.43
2023-05-09T15:11:49.248Z,27.28
2023-05-09T15:14:16.140Z,27.56
2023-05-09T15:16:42.949Z,26.62
2023-05-09T15:19:09.868Z,26.72
2023-05-09T15:21:36.457Z,26.61
2023-05-09T15:24:04.402Z,26.70
2023-05-09T15:26:31.489Z,26.78
2023-05-09T15:28:59.447Z,26.42
2023-05-09T15:31:26.290Z,27.27
2023-05-09T15:33:53.181Z,27.40
2023-05-09T15:36:19.708Z,27.38
2023-05-09T15:38:48.800Z,27.22
2023-05-09T15:41:15.813Z,27.33
2023-05-09T15:43:42.374Z,27.45
2023-05-09T15:46:09.183Z,27.94
2023-05-09T15:48:36.042Z,27.91
2023-05-09T15:51:03.443Z,28.01
2023-05-09T15:53:30.045Z,27.84
2023-05-09T15:55:56.746Z,27.53
2023-05-09T15:58:23.343Z,27.47
2023-05-09T16:00:50.634Z,27.64
2023-05-09T16:03:17.970Z,27.36
2023-05-09T16:05:45.062Z,27.80
2023-05-09T16:08:12.071Z,28.09
2023-05-09T16:10:41.143Z,27.99
2023-05-09T16:13:08.790Z,28.46
2023-05-09T16:15:35.577Z,28.56
2023-05-09T16:18:02.392Z,28.18
2023-05-09T16:20:29.018Z,28.53
2023-05-09T16:22:55.779Z,28.34
2023-05-09T16:25:22.884Z,28.79
2023-05-09T16:27:49.694Z,29.06
2023-05-09T16:30:16.783Z,28.92
2023-05-09T16:32:44.215Z,28.93
2023-05-09T16:35:11.346Z,28.79
2023-05-09T16:37:38.093Z,29.17
2023-05-09T16:40:05.526Z,28.90
2023-05-09T16:42:32.345Z,28.63
2023-05-09T16:44:59.031Z,29.04
2023-05-09T16:47:25.844Z,29.35
2023-05-09T16:49:52.533Z,29.61
2023-05-09T16:52:19.886Z,29.87
2023-05-09T16:54:46.676Z,29.82
2023-05-09T16:57:13.409Z,29.83
2023-05-09T16:59:40.103Z,30.08
2023-05-09T17:02:07.564Z,29.89
2023-05-09T17:04:36.650Z,29.56
2023-05-09T17:07:04.367Z,29.82
2023-05-09T17:09:34.545Z,29.78
2023-05-09T17:12:01.820Z,30.00
2023-05-09T17:14:28.813Z,30.21
2023-05-09T17:16:55.441Z,30.34
2023-05-09T17:19:23.042Z,30.33
2023-05-09T17:21:49.809Z,30.63
2023-05-09T17:24:18.909Z,30.54
2023-05-09T17:26:45.544Z,30.34
2023-05-09T17:29:12.090Z,31.02
2023-05-09T17:31:38.777Z,31.27
2023-05-09T17:34:05.388Z,31.27
2023-05-09T17:36:32.979Z,31.24
2023-05-09T17:39:00.251Z,31.61
2023-05-09T17:41:27.098Z,31.47
2023-05-09T17:43:56.683Z,31.59
2023-05-09T17:46:24.140Z,31.80
2023-05-09T17:48:51.463Z,32.25
2023-05-09T17:51:18.308Z,32.34
2023-05-09T17:53:46.223Z,32.43
2023-05-09T17:56:12.851Z,32.51
2023-05-09T17:58:39.416Z,32.74
2023-05-09T18:01:06.570Z,32.60
2023-05-09T18:03:33.374Z,32.76
2023-05-09T18:06:01.145Z,33.14
2023-05-09T18:08:29.035Z,33.27
2023-05-09T18:10:56.244Z,33.33
2023-05-09T18:13:23.149Z,33.75
2023-05-09T18:15:49.931Z,34.00
2023-05-09T18:18:16.747Z,34.05
2023-05-09T18:20:45.745Z,34.11
2023-05-09T18:23:14.220Z,34.57
2023-05-09T18:25:41.482Z,35.79
2023-05-09T18:28:08.826Z,37.16
2023-05-09T18:30:35.590Z,37.79
2023-05-09T18:33:02.267Z,37.91
2023-05-09T18:35:29.369Z,37.77
2023-05-09T18:37:56.140Z,38.35
2023-05-09T18:40:23.073Z,38.58
2023-05-09T18:42:49.858Z,38.67
2023-05-09T18:45:16.813Z,38.70
2023-05-09T18:47:43.435Z,38.76
2023-05-09T18:50:10.771Z,38.63
2023-05-09T18:52:37.880Z,38.37
2023-05-09T18:55:05.380Z,38.59
2023-05-09T18:57:33.285Z,38.94
2023-05-09T19:00:00.934Z,38.91
2023-05-09T19:02:29.459Z,39.14
2023-05-09T19:04:56.256Z,39.54
2023-05-09T19:07:23.049Z,39.32
2023-05-09T19:09:49.761Z,39.72
2023-05-09T19:12:17.245Z,39.31
2023-05-09T19:14:44.028Z,39.67
2023-05-09T19:17:10.618Z,39.90
2023-05-09T19:19:37.359Z,40.15
2023-05-09T19:22:04.337Z,40.10
2023-05-09T19:24:32.126Z,40.47
2023-05-09T19:26:58.813Z,41.45
2023-05-09T19:29:25.558Z,42.38
2023-05-09T19:31:52.102Z,42.58
2023-05-09T19:34:18.772Z,42.55
2023-05-09T19:36:45.611Z,42.43
2023-05-09T19:39:12.158Z,42.42
2023-05-09T19:41:38.762Z,41.82
2023-05-09T19:44:06.523Z,42.38
2023-05-09T19:46:33.206Z,42.06
2023-05-09T19:49:00.966Z,42.08
2023-05-09T19:51:27.877Z,42.24
2023-05-09T19:53:54.742Z,42.14
2023-05-09T19:56:22.670Z,42.45
2023-05-09T19:58:49.745Z,43.01
2023-05-09T20:01:18.557Z,43.31
2023-05-09T20:03:46.427Z,43.63
2023-05-09T20:06:13.754Z,44.17
2023-05-09T20:08:40.940Z,44.37
2023-05-09T20:11:07.856Z,44.36
2023-05-09T20:13:34.803Z,44.38
2023-05-09T20:16:02.661Z,44.43
2023-05-09T20:18:32.708Z,44.35
2023-05-09T20:21:00.569Z,44.84
2023-05-09T20:23:27.757Z,45.27
2023-05-09T20:25:55.349Z,45.47
2023-05-09T20:28:22.421Z,45.49
2023-05-09T20:30:49.429Z,45.06
2023-05-09T20:33:16.461Z,45.30
2023-05-09T20:35:43.357Z,45.78
2023-05-09T20:38:11.144Z,45.86
2023-05-09T20:40:38.129Z,45.65
2023-05-09T20:43:04.932Z,45.20
2023-05-09T20:45:31.780Z,45.26
2023-05-09T20:47:58.959Z,45.25
2023-05-09T20:50:25.882Z,45.01
2023-05-09T20:52:52.532Z,45.11
2023-05-09T20:55:19.313Z,45.15
2023-05-09T20:57:46.108Z,45.09
2023-05-09T21:00:13.188Z,45.34
2023-05-09T21:02:40.307Z,45.21
2023-05-09T21:05:08.030Z,45.45
2023-05-09T21:07:35.068Z,45.37
2023-05-09T21:10:01.862Z,45.56
2023-05-09T21:12:29.956Z,45.59
2023-05-09T21:14:57.215Z,45.84
2023-05-09T21:17:24.026Z,45.81
2023-05-09T21:19:51.314Z,45.81
2023-05-09T21:22:17.795Z,45.85
2023-05-09T21:24:44.806Z,46.02
2023-05-09T21:27:11.461Z,46.08
2023-05-09T21:29:38.015Z,45.98
2023-05-09T21:32:05.109Z,46.14
2023-05-09T21:34:31.780Z,46.35
2023-05-09T21:36:58.413Z,46.61
2023-05-09T21:39:25.189Z,46.65
2023-05-09T21:41:51.827Z,46.86
2023-05-09T21:44:18.352Z,46.82
2023-05-09T21:46:45.717Z,46.86
2023-05-09T21:49:16.093Z,47.11
2023-05-09T21:51:47.813Z,47.23
2023-05-09T21:54:14.811Z,47.22
2023-05-09T21:56:42.030Z,47.26
2023-05-09T21:59:09.153Z,47.23
2023-05-09T22:01:36.558Z,47.52
2023-05-09T22:04:03.224Z,47.38
2023-05-09T22:06:30.727Z,47.51
2023-05-09T22:08:57.664Z,47.63
2023-05-09T22:11:24.326Z,47.79
2023-05-09T22:13:52.430Z,47.77
2023-05-09T22:16:19.459Z,47.86
2023-05-09T22:18:46.005Z,47.89
2023-05-09T22:21:12.700Z,48.21
2023-05-09T22:23:39.605Z,48.17
2023-05-09T22:26:06.405Z,48.20
2023-05-09T22:28:32.905Z,48.42
2023-05-09T22:30:59.880Z,48.59
2023-05-09T22:33:26.484Z,48.45
2023-05-09T22:35:53.203Z,48.84
2023-05-09T22:38:20.060Z,48.93
2023-05-09T22:40:46.584Z,49.09
2023-05-09T22:43:13.211Z,49.20
2023-05-09T22:45:39.964Z,48.95
2023-05-09T22:48:06.930Z,49.05
2023-05-09T22:50:34.612Z,49.20
2023-05-09T22:53:01.817Z,49.23
2023-05-09T22:55:28.842Z,49.63
2023-05-09T22:57:55.469Z,49.89
2023-05-09T23:00:22.344Z,49.92
2023-05-09T23:02:49.028Z,49.92
2023-05-09T23:05:15.695Z,49.91
2023-05-09T23:07:42.448Z,50.13
2023-05-09T23:10:09.262Z,50.11
2023-05-09T23:12:37.377Z,50.65
2023-05-09T23:15:05.846Z,51.13
2023-05-09T23:17:32.697Z,50.97
2023-05-09T23:20:00.174Z,51.04
2023-05-09T23:22:27.081Z,51.08
2023-05-09T23:24:53.815Z,51.47
2023-05-09T23:27:20.356Z,51.74
2023-05-09T23:29:46.921Z,51.72
2023-05-09T23:32:13.466Z,51.78
2023-05-09T23:34:40.118Z,51.78
2023-05-09T23:37:06.848Z,51.77
2023-05-09T23:39:34.047Z,52.06
2023-05-09T23:42:00.572Z,52.32
2023-05-09T23:44:27.348Z,52.47
2023-05-09T23:46:53.957Z,52.46
2023-05-09T23:49:20.772Z,52.60
2023-05-09T23:51:47.631Z,52.75
2023-05-09T23:54:15.953Z,52.73
2023-05-09T23:56:42.781Z,52.57
2023-05-09T23:59:09.480Z,52.92
